Ana Sayfa
METAR-TAF:

METAR-TAF

Havaalanları :

Denpasar, Endonezya

Enlem: 08-44-53S, Boylam: 115-10-03E, yükseklik: 4 m

Güncel hava durumu gözlemi

Rapor saat 20:00 UTC de 37 dakika önce yapıldı.
Rüzgar kuzey/kuzeybatıdan 3 kt
Sıcaklık 27°C
Nem 89%
Basınç 1009 hPa
Görüş mesafesi 10 km veya daha fazla
1700 ft yükseklikte az bulutlu

METAR: WADD 312000Z 33003KT 9999 FEW017 27/25 Q1009 NOSIG

Saat: 03:37 (20:37 UTC)

Tahmin

Rapor saat 17:00 UTC de 3 saat ve 37 dakika önce yapıldı.
Ayın 31'si saat 18 UTC'den ayın 01'si saat 18 UTC'ye kadar geçerli Tahmin
Rüzgar değişken yönden 5 kt
Görüş mesafesi 10 km veya daha fazla
1700 ft yükseklikte parçalı bulutlu
Dönüşüyor
ayın 31'si saat 22 UTC'den ayın 01'si saat 00 UTC'ye kadar
Rüzgar doğudan 10 kt
Dönüşüyor
ayın 01'si saat 10 UTC'den ayın 01'si saat 12 UTC'ye kadar
Rüzgar değişken yönden 5 kt

TAF: WADD 311700Z 3118/0118 VRB05KT 9999 SCT017 BECMG 3122/0100 10010KT BECMG 0110/0112 VRB05KT

4.000'den fazla havaalanı için hava durumu gözlemleri ve tahminleri (METAR ve TAF raporları).

Kullanılabilir istasyonlar harita üzerinde sarı ve kırmızı noktalarla gösterilir.

İstasyonun adını görmek için fareyi noktanın üzerinde gezdirin.

Sonrasında hava gözlem ve tahminlerini görmek için tıklayın.

Haritayı değiştirmek için: yaklaştırmak için siyah artı işaretli yeşil düğmeye ve uzaklaştırmak için de eksi işaretli düğmeye hızla tıklayın; bitişik haritalar için yeşil okları kullanın.


METAR-TAF: